Time;durP1;ratioP1;P1;durP2;ratioP2;P2;SDS_P1;SDS_P2;PMS_P1;PMS_P2;Temp;Humidity;BMP_temperature;BMP_pressure;BME280_temperature;BME280_humidity;BME280_pressure;Samples;Min_cycle;Max_cycle;Signal;HPM_P1;HPM_P2
2020/12/06 00:01:52;;;;;;;16.45;11.07;;;20.40;43.90;;;;;;6245416;28;20068;-61
2020/12/06 00:04:52;;;;;;;19.10;12.15;;;20.40;43.90;;;;;;6244687;28;20033;-61
2020/12/06 00:07:53;;;;;;;15.73;11.00;;;20.40;43.90;;;;;;6244890;28;20364;-62
2020/12/06 00:10:53;;;;;;;16.40;10.80;;;20.40;43.90;;;;;;6244359;28;20096;-61
2020/12/06 00:13:53;;;;;;;14.88;10.35;;;20.40;43.90;;;;;;6244679;28;20064;-60
2020/12/06 00:16:54;;;;;;;15.57;10.52;;;20.40;44.00;;;;;;6245141;28;20036;-61
2020/12/06 00:19:54;;;;;;;14.82;10.30;;;20.40;44.00;;;;;;6244957;28;20349;-62
2020/12/06 00:22:55;;;;;;;13.73;9.95;;;20.40;44.00;;;;;;6243657;28;20033;-61
2020/12/06 00:25:55;;;;;;;16.00;10.98;;;20.30;44.00;;;;;;6244872;28;20028;-62
2020/12/06 00:28:56;;;;;;;15.38;10.73;;;20.40;44.00;;;;;;6244290;28;20044;-62
2020/12/06 00:31:56;;;;;;;13.18;9.90;;;20.30;44.00;;;;;;6244246;28;20499;-61
2020/12/06 00:34:57;;;;;;;16.05;10.02;;;20.30;44.00;;;;;;6244162;28;20431;-60
2020/12/06 00:37:57;;;;;;;13.23;10.10;;;20.30;44.00;;;;;;6243887;28;20419;-61
2020/12/06 00:40:58;;;;;;;13.10;9.40;;;20.30;44.00;;;;;;6244219;28;20104;-61
2020/12/06 00:43:58;;;;;;;14.55;10.48;;;20.30;44.10;;;;;;6244212;28;20025;-58
2020/12/06 00:46:59;;;;;;;13.52;9.30;;;20.30;44.10;;;;;;6244066;28;20087;-59
2020/12/06 00:49:59;;;;;;;10.75;8.95;;;20.40;44.20;;;;;;6243456;28;20036;-61
2020/12/06 00:52:59;;;;;;;11.00;8.02;;;20.30;44.20;;;;;;6243854;28;20041;-62
2020/12/06 00:56:00;;;;;;;16.08;9.77;;;20.30;44.60;;;;;;6243694;28;20033;-61
2020/12/06 00:59:00;;;;;;;11.27;8.57;;;20.30;44.30;;;;;;6225869;28;20116;-60
2020/12/06 01:02:03;;;;;;;12.27;8.80;;;20.30;45.00;;;;;;6243429;28;20048;-60
2020/12/06 01:05:04;;;;;;;13.98;8.73;;;20.30;44.30;;;;;;6243471;28;20455;-61
2020/12/06 01:08:06;;;;;;;12.18;8.93;;;20.30;44.30;;;;;;6243653;28;20029;-61
2020/12/06 01:11:06;;;;;;;11.15;8.48;;;20.30;44.30;;;;;;6242821;28;20368;-61
2020/12/06 01:14:06;;;;;;;12.13;8.23;;;20.30;44.30;;;;;;6242915;22;20057;-56
2020/12/06 01:17:07;;;;;;;11.75;8.45;;;20.30;44.30;;;;;;6218324;28;20080;-54
2020/12/06 01:20:08;;;;;;;9.85;8.02;;;20.30;44.40;;;;;;6218322;28;20500;-53
2020/12/06 01:23:08;;;;;;;11.85;8.25;;;20.30;45.10;;;;;;6218740;28;20018;-50
2020/12/06 01:26:10;;;;;;;12.48;8.63;;;20.30;44.40;;;;;;6217325;28;20033;-55
2020/12/06 01:29:11;;;;;;;12.23;8.25;;;20.30;44.50;;;;;;6218464;28;20034;-55
2020/12/06 01:32:11;;;;;;;10.93;7.63;;;20.30;44.40;;;;;;6217801;28;20014;-54
2020/12/06 01:35:12;;;;;;;10.43;7.80;;;20.30;44.40;;;;;;6218303;28;20058;-54
2020/12/06 01:38:12;;;;;;;10.55;7.70;;;20.30;44.50;;;;;;6217670;28;20072;-56
2020/12/06 01:41:17;;;;;;;10.85;8.00;;;20.30;44.50;;;;;;6217975;28;20061;-53
2020/12/06 01:44:17;;;;;;;11.40;8.18;;;20.30;44.40;;;;;;6218112;28;20030;-54
2020/12/06 01:47:18;;;;;;;10.32;7.18;;;20.30;44.50;;;;;;6218031;28;20057;-57
2020/12/06 01:50:19;;;;;;;10.13;7.45;;;20.30;44.50;;;;;;6217798;28;20034;-59
2020/12/06 01:53:21;;;;;;;9.52;7.22;;;20.20;44.40;;;;;;6218185;28;20041;-55
2020/12/06 01:56:22;;;;;;;10.35;7.38;;;20.20;44.50;;;;;;6218308;28;20030;-55
2020/12/06 01:59:22;;;;;;;11.30;7.50;;;20.20;44.50;;;;;;6217423;28;20483;-59
2020/12/06 02:02:22;;;;;;;9.48;7.18;;;20.20;44.50;;;;;;6217548;28;20488;-53
2020/12/06 02:05:23;;;;;;;9.80;7.35;;;20.20;44.50;;;;;;6217909;28;20549;-55
2020/12/06 02:08:23;;;;;;;10.63;7.53;;;20.20;44.60;;;;;;6217458;28;20415;-57
2020/12/06 02:11:31;;;;;;;10.43;7.15;;;20.20;44.50;;;;;;6217613;28;20104;-59
2020/12/06 02:14:32;;;;;;;10.75;7.35;;;20.20;44.60;;;;;;6217742;28;20030;-51
2020/12/06 02:17:32;;;;;;;9.02;6.70;;;20.20;44.60;;;;;;6217369;28;20533;-58
2020/12/06 02:20:33;;;;;;;8.38;6.65;;;20.20;44.60;;;;;;6217592;28;20088;-54
2020/12/06 02:23:33;;;;;;;10.48;7.07;;;20.20;44.60;;;;;;6217471;28;20076;-56
2020/12/06 02:26:39;;;;;;;9.98;7.10;;;20.20;44.60;;;;;;6217315;28;20104;-56
2020/12/06 02:29:39;;;;;;;9.70;7.20;;;20.20;44.70;;;;;;6217761;28;20037;-56
2020/12/06 02:32:39;;;;;;;10.15;7.18;;;20.20;44.60;;;;;;6217093;28;20057;-56
2020/12/06 02:35:40;;;;;;;9.48;6.75;;;20.20;44.70;;;;;;6218997;28;20014;-56
2020/12/06 02:38:40;;;;;;;9.48;6.63;;;20.20;44.70;;;;;;6221923;28;20171;-54
2020/12/06 02:41:43;;;;;;;10.32;7.15;;;20.20;44.70;;;;;;6222878;28;20018;-56
2020/12/06 02:44:43;;;;;;;9.15;6.70;;;20.20;44.70;;;;;;6222039;28;20040;-59
2020/12/06 02:47:44;;;;;;;8.23;6.20;;;20.20;44.70;;;;;;6223542;28;20522;-58
2020/12/06 02:50:44;;;;;;;8.35;6.07;;;20.20;44.80;;;;;;6224201;28;20109;-58
2020/12/06 02:53:45;;;;;;;8.80;6.32;;;20.20;44.80;;;;;;6222177;28;20476;-55
2020/12/06 02:56:45;;;;;;;7.85;6.25;;;20.20;44.80;;;;;;6222516;28;20026;-55
2020/12/06 02:59:46;;;;;;;10.10;6.05;;;20.10;44.80;;;;;;6221635;28;20048;-59
2020/12/06 03:02:46;;;;;;;7.80;6.00;;;20.20;44.80;;;;;;6222095;28;20121;-54
2020/12/06 03:05:47;;;;;;;9.30;6.65;;;20.20;44.80;;;;;;6221506;28;20057;-54
2020/12/06 03:08:47;;;;;;;10.77;6.55;;;20.20;44.90;;;;;;6221931;28;20084;-57
2020/12/06 03:11:48;;;;;;;7.53;5.70;;;20.20;44.90;;;;;;6221016;28;20026;-53
2020/12/06 03:14:48;;;;;;;8.93;6.22;;;20.20;44.80;;;;;;6221699;28;20029;-58
2020/12/06 03:17:49;;;;;;;7.30;5.75;;;20.20;44.90;;;;;;6222146;28;20025;-55
2020/12/06 03:20:49;;;;;;;8.27;5.82;;;20.10;44.80;;;;;;6221063;28;20034;-55
2020/12/06 03:23:50;;;;;;;7.53;5.97;;;20.10;44.80;;;;;;6237874;28;20041;-52
2020/12/06 03:26:50;;;;;;;7.55;5.80;;;20.10;44.90;;;;;;6245726;28;20326;-53
2020/12/06 03:29:51;;;;;;;8.27;5.68;;;20.10;44.90;;;;;;6246311;28;20033;-51
2020/12/06 03:32:51;;;;;;;8.32;5.47;;;20.10;44.90;;;;;;6245244;28;20026;-55
2020/12/06 03:35:51;;;;;;;7.63;5.60;;;20.10;44.90;;;;;;6245787;28;20052;-52
2020/12/06 03:38:52;;;;;;;8.57;5.82;;;20.10;44.80;;;;;;6245317;28;20079;-54
2020/12/06 03:41:52;;;;;;;7.60;5.45;;;20.10;44.90;;;;;;6245033;28;20033;-54
2020/12/06 03:44:53;;;;;;;8.15;6.07;;;20.10;44.90;;;;;;6245548;28;20037;-58
2020/12/06 03:47:56;;;;;;;7.28;5.03;;;20.10;44.90;;;;;;6244481;28;20029;-54
2020/12/06 03:50:56;;;;;;;6.63;5.13;;;20.10;45.00;;;;;;6196668;28;20026;-56
2020/12/06 03:53:57;;;;;;;7.35;5.32;;;20.10;45.00;;;;;;6196002;28;20121;-53
2020/12/06 03:56:57;;;;;;;7.20;5.22;;;20.10;45.00;;;;;;6196217;28;20042;-53
2020/12/06 03:59:58;;;;;;;7.57;5.55;;;20.10;45.00;;;;;;6196042;28;20038;-58
2020/12/06 04:02:58;;;;;;;7.30;5.45;;;20.10;45.00;;;;;;6196060;28;20053;-54
2020/12/06 04:05:59;;;;;;;6.68;5.03;;;20.10;45.00;;;;;;6196040;28;20443;-52
2020/12/06 04:08:59;;;;;;;8.77;5.60;;;20.10;45.10;;;;;;6195928;28;20664;-53
2020/12/06 04:12:00;;;;;;;6.57;5.00;;;20.10;45.10;;;;;;6195600;28;20509;-55
2020/12/06 04:15:00;;;;;;;7.55;5.57;;;20.10;45.10;;;;;;6202028;28;20365;-54
2020/12/06 04:18:00;;;;;;;6.70;5.00;;;20.10;45.80;;;;;;6220366;28;20436;-55
2020/12/06 04:21:01;;;;;;;7.30;5.13;;;20.10;45.10;;;;;;6219826;28;20425;-56
2020/12/06 04:24:01;;;;;;;6.30;4.80;;;20.10;45.10;;;;;;6219861;28;20049;-55
2020/12/06 04:27:02;;;;;;;6.85;5.20;;;20.00;45.10;;;;;;6219786;28;20037;-55
2020/12/06 04:30:03;;;;;;;6.65;5.00;;;20.10;45.10;;;;;;6219510;28;20033;-55
2020/12/06 04:33:04;;;;;;;9.80;5.15;;;20.10;45.10;;;;;;6219474;28;20089;-51
2020/12/06 04:36:04;;;;;;;7.15;4.95;;;20.10;45.10;;;;;;6219977;28;20399;-52
2020/12/06 04:39:05;;;;;;;8.57;5.40;;;20.10;45.10;;;;;;6219238;28;20026;-53
2020/12/06 04:42:05;;;;;;;7.78;5.25;;;20.10;45.10;;;;;;6219109;28;20049;-55
2020/12/06 04:45:06;;;;;;;6.15;4.85;;;20.00;45.10;;;;;;6219407;28;20105;-52
2020/12/06 04:48:08;;;;;;;6.20;4.80;;;20.10;45.10;;;;;;6219102;28;20056;-52
2020/12/06 04:51:13;;;;;;;7.78;4.75;;;20.00;45.10;;;;;;6219193;28;20034;-52
2020/12/06 04:54:20;;;;;;;6.07;4.88;;;20.10;45.20;;;;;;6218832;28;20048;-57
2020/12/06 04:57:22;;;;;;;7.30;4.72;;;20.00;45.10;;;;;;6219587;28;20034;-50
2020/12/06 05:00:34;;;;;;;5.25;4.57;;;20.10;45.20;;;;;;6217865;28;20025;-53
2020/12/06 05:03:38;;;;;;;5.82;4.20;;;20.00;45.10;;;;;;6219283;28;20392;-55
2020/12/06 05:06:41;;;;;;;7.13;4.93;;;20.00;45.10;;;;;;6218807;28;20026;-53
2020/12/06 05:09:46;;;;;;;6.72;4.35;;;20.00;45.10;;;;;;6218714;28;20034;-52
2020/12/06 05:12:46;;;;;;;6.90;4.97;;;20.10;45.10;;;;;;6218703;28;20038;-57
2020/12/06 05:15:47;;;;;;;6.60;4.55;;;20.10;45.10;;;;;;6219212;28;20045;-53
2020/12/06 05:18:48;;;;;;;5.25;4.32;;;20.10;45.10;;;;;;6218460;28;20029;-55
2020/12/06 05:21:49;;;;;;;7.20;4.40;;;20.10;45.10;;;;;;6218393;28;20030;-52
2020/12/06 05:24:50;;;;;;;5.30;4.35;;;20.20;45.10;;;;;;6218613;28;20030;-53
2020/12/06 05:27:50;;;;;;;6.03;4.38;;;20.10;45.00;;;;;;6218094;28;20451;-54
2020/12/06 05:30:53;;;;;;;6.57;4.55;;;20.20;45.10;;;;;;6218198;28;20036;-56
2020/12/06 05:33:55;;;;;;;6.57;4.47;;;20.20;45.30;;;;;;6218104;28;20399;-54
2020/12/06 05:36:55;;;;;;;5.05;4.18;;;20.20;45.10;;;;;;6218151;28;20022;-55
2020/12/06 05:40:03;;;;;;;5.82;4.18;;;20.20;45.10;;;;;;6217967;28;20065;-59
2020/12/06 05:43:03;;;;;;;6.30;4.40;;;20.20;45.20;;;;;;6217959;28;20056;-53
2020/12/06 05:46:09;;;;;;;6.03;4.05;;;20.20;45.20;;;;;;6217668;28;20037;-55
2020/12/06 05:49:09;;;;;;;;;;;20.30;45.30;;;;;;6218396;28;20439;-58
2020/12/06 05:52:09;;;;;;;5.07;3.85;;;20.30;45.30;;;;;;6217262;28;19909;-53
2020/12/06 05:55:10;;;;;;;6.10;4.28;;;20.30;45.30;;;;;;6218046;28;20029;-56
2020/12/06 05:58:17;;;;;;;6.15;4.18;;;20.20;45.20;;;;;;6217809;28;20141;-52
2020/12/06 06:01:20;;;;;;;5.97;4.28;;;20.20;45.30;;;;;;6217767;28;20037;-54
2020/12/06 06:04:22;;;;;;;5.43;3.90;;;20.30;45.30;;;;;;6217772;28;20022;-54
2020/12/06 06:07:23;;;;;;;5.22;4.13;;;20.30;45.40;;;;;;6218053;28;20376;-52
2020/12/06 06:10:33;;;;;;;6.55;3.80;;;20.30;45.30;;;;;;6217154;28;20112;-51
2020/12/06 06:13:39;;;;;;;5.60;4.00;;;20.30;45.30;;;;;;6217268;28;20117;-57
2020/12/06 06:16:40;;;;;;;5.15;3.53;;;20.30;45.40;;;;;;6217849;28;20033;-57
2020/12/06 06:19:41;;;;;;;6.15;4.05;;;20.30;45.40;;;;;;6217588;28;20029;-54
2020/12/06 06:22:44;;;;;;;6.30;3.88;;;20.30;45.40;;;;;;6217183;28;20038;-58
2020/12/06 06:25:45;;;;;;;7.20;3.80;;;20.30;45.40;;;;;;6236178;28;20447;-54
2020/12/06 06:28:46;;;;;;;5.63;3.90;;;20.30;45.40;;;;;;6242434;28;20152;-53
2020/12/06 06:31:51;;;;;;;5.03;3.75;;;20.30;45.40;;;;;;6241503;28;20025;-56
2020/12/06 06:34:53;;;;;;;6.03;3.72;;;20.30;45.50;;;;;;6241816;28;20029;-53
2020/12/06 06:37:53;;;;;;;6.00;4.07;;;20.30;45.50;;;;;;6241839;28;20025;-59
2020/12/06 06:40:55;;;;;;;4.82;3.60;;;20.30;45.50;;;;;;6241677;28;20033;-55
2020/12/06 06:44:01;;;;;;;4.85;3.72;;;20.30;45.50;;;;;;6241842;28;20025;-55
2020/12/06 06:47:04;;;;;;;5.70;3.70;;;20.20;45.40;;;;;;6241930;28;20036;-56
2020/12/06 06:50:10;;;;;;;5.25;3.85;;;20.20;45.40;;;;;;6241524;28;20037;-58
2020/12/06 06:53:14;;;;;;;5.38;3.80;;;20.20;45.50;;;;;;6241492;28;20025;-54
2020/12/06 06:56:18;;;;;;;5.97;3.60;;;20.30;45.60;;;;;;6241831;28;20118;-53
2020/12/06 06:59:39;;;;;;;6.68;3.65;;;20.30;45.60;;;;;;6241831;28;20102;-56
2020/12/06 07:02:43;;;;;;;6.18;4.00;;;20.30;45.60;;;;;;6245398;28;20087;-59
2020/12/06 07:05:44;;;;;;;5.78;3.90;;;20.20;45.50;;;;;;6258411;28;20068;-56
2020/12/06 07:08:45;;;;;;;4.57;3.25;;;20.30;45.60;;;;;;6250323;28;20116;-52
2020/12/06 07:11:46;;;;;;;4.43;3.30;;;20.30;45.60;;;;;;6240930;28;20024;-51
2020/12/06 07:14:47;;;;;;;7.22;3.72;;;20.20;45.50;;;;;;6239536;28;20018;-61
2020/12/06 07:17:48;;;;;;;5.38;3.60;;;20.20;45.50;;;;;;6216754;28;20037;-60
2020/12/06 07:20:49;;;;;;;5.82;3.75;;;20.30;45.70;;;;;;6216949;28;20171;-60
2020/12/06 07:23:50;;;;;;;5.60;4.03;;;20.30;45.60;;;;;;6219577;28;20262;-60
2020/12/06 07:26:50;;;;;;;4.90;3.40;;;20.20;46.30;;;;;;6221353;28;20122;-60
2020/12/06 07:29:51;;;;;;;4.80;3.53;;;20.30;45.70;;;;;;6221763;28;20034;-60
2020/12/06 07:32:51;;;;;;;5.53;3.80;;;20.20;45.60;;;;;;6220994;28;20022;-61
2020/12/06 07:35:52;;;;;;;5.57;3.30;;;20.20;45.60;;;;;;6221164;28;20080;-60
2020/12/06 07:38:52;;;;;;;4.60;3.45;;;20.20;45.70;;;;;;6220769;28;20030;-60
2020/12/06 07:41:53;;;;;;;5.10;3.42;;;20.20;45.70;;;;;;6220660;28;20030;-60
2020/12/06 07:44:55;;;;;;;4.72;3.45;;;20.20;45.80;;;;;;6203467;28;20278;-60
2020/12/06 07:47:55;;;;;;;4.93;3.47;;;20.20;45.70;;;;;;6220913;28;20018;-60
2020/12/06 07:50:56;;;;;;;5.47;3.53;;;20.20;45.70;;;;;;6220426;28;20030;-61
2020/12/06 07:53:57;;;;;;;4.40;3.45;;;20.20;45.70;;;;;;6220590;28;20429;-61
2020/12/06 07:56:57;;;;;;;4.50;3.40;;;20.20;45.70;;;;;;6221116;28;20072;-61
2020/12/06 08:00:00;;;;;;;5.38;3.40;;;20.20;45.70;;;;;;6220740;28;20572;-60
2020/12/06 08:03:00;;;;;;;5.10;3.50;;;20.20;45.80;;;;;;6220456;28;20065;-61
2020/12/06 08:06:03;;;;;;;4.32;3.25;;;20.20;45.80;;;;;;6220490;28;20030;-61
2020/12/06 08:09:05;;;;;;;4.78;2.95;;;20.20;45.70;;;;;;6220415;28;20169;-60
2020/12/06 08:12:06;;;;;;;4.95;3.42;;;20.20;45.60;;;;;;6219653;28;20107;-60
2020/12/06 08:15:07;;;;;;;4.18;2.80;;;20.20;45.70;;;;;;6220590;28;20080;-60
2020/12/06 08:18:12;;;;;;;4.85;3.22;;;20.20;45.60;;;;;;6219876;28;20030;-60
2020/12/06 08:21:12;;;;;;;5.13;3.35;;;20.20;45.60;;;;;;6220249;28;20030;-60
2020/12/06 08:24:23;;;;;;;4.15;3.03;;;20.20;45.60;;;;;;6219623;28;20065;-61
2020/12/06 08:27:23;;;;;;;4.43;3.17;;;20.20;45.60;;;;;;6219898;28;20069;-60
2020/12/06 08:30:27;;;;;;;3.70;2.90;;;20.30;45.70;;;;;;6219170;28;20034;-60
2020/12/06 08:33:28;;;;;;;4.20;3.00;;;20.20;45.60;;;;;;6219512;28;20116;-60
2020/12/06 08:36:29;;;;;;;5.78;3.38;;;20.20;45.60;;;;;;6220329;28;20476;-61
2020/12/06 08:39:32;;;;;;;4.70;3.33;;;20.30;45.70;;;;;;6219116;28;20029;-61
2020/12/06 08:42:33;;;;;;;3.97;2.97;;;20.30;45.80;;;;;;6232952;28;20044;-60
2020/12/06 08:45:33;;;;;;;4.10;2.90;;;20.30;45.80;;;;;;6243884;28;20025;-60
2020/12/06 08:48:34;;;;;;;4.82;3.17;;;20.20;45.70;;;;;;6244366;28;20345;-61
2020/12/06 08:51:38;;;;;;;4.20;3.03;;;20.30;45.80;;;;;;6244069;28;20041;-60
2020/12/06 08:54:39;;;;;;;4.10;2.80;;;20.20;45.70;;;;;;6244281;28;20036;-59
2020/12/06 08:57:39;;;;;;;5.40;3.60;;;20.30;45.80;;;;;;6243872;28;20470;-61
2020/12/06 09:00:40;;;;;;;3.55;2.80;;;20.30;45.80;;;;;;6243778;28;20029;-60
2020/12/06 09:03:40;;;;;;;4.55;3.20;;;20.30;45.80;;;;;;6243587;28;20096;-60
2020/12/06 09:06:41;;;;;;;4.13;2.90;;;20.30;45.70;;;;;;6243664;28;20040;-59
2020/12/06 09:09:42;;;;;;;5.70;3.40;;;20.30;45.80;;;;;;6243256;28;20038;-60
2020/12/06 09:12:43;;;;;;;4.45;3.00;;;20.30;45.70;;;;;;6242863;28;20415;-61
2020/12/06 09:15:43;;;;;;;5.57;2.90;;;20.30;45.40;;;;;;6243583;28;20017;-60
2020/12/06 09:18:44;;;;;;;4.45;2.90;;;20.40;45.30;;;;;;6243112;28;20439;-61
2020/12/06 09:21:44;;;;;;;4.38;3.00;;;20.50;45.40;;;;;;6242947;28;20543;-60
2020/12/06 09:24:45;;;;;;;3.92;2.67;;;20.50;45.20;;;;;;6242795;28;20031;-60
2020/12/06 09:27:45;;;;;;;4.38;2.58;;;20.50;45.00;;;;;;6243594;28;20030;-61
2020/12/06 09:30:46;;;;;;;4.18;2.90;;;20.60;45.10;;;;;;6242860;28;20040;-61
2020/12/06 09:33:47;;;;;;;3.85;2.97;;;20.70;45.20;;;;;;6243446;28;20046;-61
2020/12/06 09:36:47;;;;;;;4.45;3.00;;;20.60;45.20;;;;;;6242759;28;20464;-61
2020/12/06 09:39:47;;;;;;;3.75;2.75;;;20.70;45.30;;;;;;6242511;28;20033;-61
2020/12/06 09:42:48;;;;;;;4.50;3.05;;;20.70;45.30;;;;;;6242425;28;20029;-61
2020/12/06 09:45:49;;;;;;;4.03;3.08;;;20.70;45.20;;;;;;6242495;28;20029;-61
2020/12/06 09:48:49;;;;;;;3.95;2.72;;;20.70;45.30;;;;;;6243858;28;20034;-61
2020/12/06 09:51:49;;;;;;;3.50;2.50;;;20.70;45.30;;;;;;6242993;28;20403;-61
2020/12/06 09:54:50;;;;;;;4.40;2.63;;;20.70;45.20;;;;;;6242769;28;20136;-60
2020/12/06 09:57:50;;;;;;;3.42;2.55;;;20.70;45.20;;;;;;6242252;28;20030;-60
2020/12/06 10:00:51;;;;;;;4.00;2.50;;;20.80;45.30;;;;;;6242417;28;20026;-60
2020/12/06 10:03:52;;;;;;;4.18;2.70;;;20.80;45.30;;;;;;6242329;28;20033;-60
2020/12/06 10:06:53;;;;;;;3.90;2.70;;;20.80;45.30;;;;;;6242504;28;20045;-60
2020/12/06 10:09:53;;;;;;;4.13;2.95;;;20.80;45.30;;;;;;6242410;28;20068;-61
2020/12/06 10:12:54;;;;;;;3.30;2.42;;;20.80;45.20;;;;;;6241525;28;20229;-61
2020/12/06 10:15:54;;;;;;;3.80;2.58;;;20.80;45.30;;;;;;6242194;28;20025;-61
2020/12/06 10:18:55;;;;;;;3.58;2.45;;;20.80;45.30;;;;;;6241791;28;20022;-60
2020/12/06 10:21:55;;;;;;;4.25;2.65;;;20.80;45.20;;;;;;6242068;28;20022;-60
2020/12/06 10:24:55;;;;;;;4.10;2.47;;;20.80;45.20;;;;;;6239937;28;20041;-61
2020/12/06 10:27:56;;;;;;;3.60;2.38;;;20.80;45.30;;;;;;6217447;28;20246;-59
2020/12/06 10:30:56;;;;;;;4.00;2.50;;;20.80;45.20;;;;;;6217407;28;20022;-60
2020/12/06 10:33:57;;;;;;;3.53;2.45;;;20.80;45.30;;;;;;6216986;28;20041;-60
2020/12/06 10:36:59;;;;;;;3.58;2.38;;;20.80;45.30;;;;;;6218184;28;20029;-61
2020/12/06 10:39:59;;;;;;;3.22;2.30;;;20.80;45.30;;;;;;6216901;28;20400;-61
2020/12/06 10:42:59;;;;;;;4.60;2.63;;;20.80;45.30;;;;;;6222563;28;20044;-59
2020/12/06 10:46:00;;;;;;;3.15;2.33;;;20.80;45.40;;;;;;6241549;28;20049;-60
2020/12/06 10:49:00;;;;;;;3.72;2.55;;;20.80;45.40;;;;;;6229348;28;20117;-61
2020/12/06 10:52:01;;;;;;;6.18;2.75;;;20.80;45.50;;;;;;6217163;28;20054;-61
2020/12/06 10:55:01;;;;;;;4.15;2.60;;;20.80;45.50;;;;;;6216878;28;20030;-61
2020/12/06 10:58:02;;;;;;;3.72;2.65;;;20.80;45.40;;;;;;6220689;28;20026;-61
2020/12/06 11:01:03;;;;;;;19.60;3.63;;;20.80;45.40;;;;;;6211425;28;20439;-61
2020/12/06 11:04:05;;;;;;;9.77;3.92;;;20.80;45.80;;;;;;6217086;28;20021;-61
2020/12/06 11:07:05;;;;;;;8.25;4.18;;;20.80;45.50;;;;;;6219306;28;20366;-61
2020/12/06 11:10:06;;;;;;;7.22;4.28;;;20.90;45.10;;;;;;6219986;28;20092;-60
2020/12/06 11:13:06;;;;;;;7.30;4.47;;;21.00;44.50;;;;;;6226736;28;20077;-60
2020/12/06 11:16:08;;;;;;;8.93;4.20;;;21.00;44.50;;;;;;6220126;28;20033;-61
2020/12/06 11:19:08;;;;;;;6.45;3.90;;;21.10;44.60;;;;;;6219012;28;20022;-62
2020/12/06 11:22:09;;;;;;;7.03;3.88;;;21.10;44.90;;;;;;6217797;28;20105;-61
2020/12/06 11:25:09;;;;;;;6.32;4.05;;;21.10;45.10;;;;;;6220915;28;20030;-61
2020/12/06 11:28:10;;;;;;;6.22;3.40;;;21.20;45.30;;;;;;6218877;28;20046;-61
2020/12/06 11:31:10;;;;;;;7.38;3.85;;;21.20;45.30;;;;;;6218880;28;20041;-62
2020/12/06 11:34:11;;;;;;;6.50;3.80;;;21.20;45.20;;;;;;6219654;28;20025;-61
2020/12/06 11:37:12;;;;;;;6.38;4.05;;;21.20;45.40;;;;;;6219959;28;20030;-61
2020/12/06 11:40:12;;;;;;;6.20;3.80;;;21.20;45.50;;;;;;6219099;28;20658;-60
2020/12/06 11:43:13;;;;;;;6.30;3.85;;;21.20;45.50;;;;;;6218662;28;20030;-60
2020/12/06 11:46:13;;;;;;;5.55;3.50;;;21.20;45.50;;;;;;6219678;28;20026;-61
2020/12/06 11:49:14;;;;;;;5.07;3.30;;;21.20;45.40;;;;;;6218709;28;20029;-61
2020/12/06 11:52:14;;;;;;;6.32;3.65;;;21.20;45.50;;;;;;6218842;28;20077;-61
2020/12/06 11:55:15;;;;;;;9.60;3.25;;;21.30;45.70;;;;;;6218871;28;20411;-60
2020/12/06 11:58:15;;;;;;;7.25;3.53;;;21.30;45.80;;;;;;6217712;28;20115;-60
2020/12/06 12:01:16;;;;;;;5.20;3.28;;;21.30;45.60;;;;;;6230040;28;20032;-61
2020/12/06 12:04:16;;;;;;;10.60;3.25;;;21.30;45.60;;;;;;6219798;28;20022;-60
2020/12/06 12:07:18;;;;;;;4.80;3.25;;;21.30;45.50;;;;;;6218775;28;20037;-60
2020/12/06 12:10:19;;;;;;;4.80;3.00;;;21.30;45.50;;;;;;6216312;28;20108;-60
2020/12/06 12:13:19;;;;;;;4.28;3.00;;;21.30;45.50;;;;;;6215945;28;20537;-60
2020/12/06 12:16:20;;;;;;;4.72;2.95;;;21.30;45.40;;;;;;6217206;28;20061;-61
2020/12/06 12:19:21;;;;;;;4.82;3.10;;;21.30;45.60;;;;;;6217501;28;20033;-61
2020/12/06 12:22:21;;;;;;;5.00;3.10;;;21.20;45.60;;;;;;6212763;28;20040;-60
2020/12/06 12:25:21;;;;;;;8.18;2.78;;;21.30;45.80;;;;;;6215836;28;20034;-58
2020/12/06 12:28:22;;;;;;;8.85;3.15;;;21.30;45.80;;;;;;6213879;28;20124;-60
2020/12/06 12:31:23;;;;;;;6.95;2.75;;;21.30;45.70;;;;;;6216148;28;20113;-61
2020/12/06 12:34:23;;;;;;;5.45;3.00;;;21.30;45.60;;;;;;6218167;28;20606;-62
2020/12/06 12:37:24;;;;;;;6.03;2.63;;;21.30;45.70;;;;;;6218211;28;20026;-60
2020/12/06 12:40:25;;;;;;;7.72;2.90;;;21.30;45.70;;;;;;6216047;28;20026;-62
2020/12/06 12:43:26;;;;;;;9.00;2.90;;;21.30;45.80;;;;;;6198755;28;20751;-61
2020/12/06 12:46:26;;;;;;;6.57;2.95;;;21.30;46.50;;;;;;6216499;28;20346;-60
2020/12/06 12:49:27;;;;;;;5.20;2.70;;;21.30;45.60;;;;;;6216222;28;20109;-60
2020/12/06 12:52:27;;;;;;;4.18;2.90;;;21.30;45.70;;;;;;6213763;28;20109;-62
2020/12/06 12:55:28;;;;;;;4.35;2.88;;;21.30;46.00;;;;;;6220124;28;20057;-61
2020/12/06 12:58:28;;;;;;;3.88;2.25;;;21.40;45.70;;;;;;6214527;28;20030;-61
2020/12/06 13:01:29;;;;;;;5.75;2.72;;;21.30;45.80;;;;;;6226722;28;20098;-61
2020/12/06 13:04:29;;;;;;;5.38;2.50;;;21.30;45.80;;;;;;6199179;28;20034;-61
2020/12/06 13:07:30;;;;;;;6.88;2.40;;;21.30;45.80;;;;;;6236916;28;20076;-61
2020/12/06 13:10:30;;;;;;;4.20;2.33;;;21.40;45.80;;;;;;6217659;28;20034;-61
2020/12/06 13:13:30;;;;;;;3.90;2.60;;;21.30;45.80;;;;;;6217265;28;20052;-59
2020/12/06 13:16:33;;;;;;;4.05;2.58;;;21.40;46.00;;;;;;6216739;28;20026;-60
2020/12/06 13:19:34;;;;;;;4.93;2.70;;;21.40;45.80;;;;;;6218665;28;20088;-61
2020/12/06 13:22:34;;;;;;;9.07;2.83;;;21.40;45.80;;;;;;6218461;28;20036;-61
2020/12/06 13:25:35;;;;;;;3.22;2.40;;;21.40;45.80;;;;;;6218643;28;20034;-62
2020/12/06 13:28:35;;;;;;;4.68;2.72;;;21.50;45.70;;;;;;6216020;28;20113;-62
2020/12/06 13:31:35;;;;;;;4.40;2.80;;;21.50;45.70;;;;;;6216314;28;20057;-63
2020/12/06 13:34:36;;;;;;;5.50;3.13;;;21.50;45.80;;;;;;6216568;28;20038;-63
2020/12/06 13:37:36;;;;;;;3.17;2.40;;;21.60;45.70;;;;;;6218512;28;20048;-62
2020/12/06 13:40:37;;;;;;;7.43;2.38;;;21.60;45.50;;;;;;6215771;28;20018;-64
2020/12/06 13:43:37;;;;;;;6.63;2.63;;;21.60;45.50;;;;;;6217335;28;20033;-62
2020/12/06 13:46:38;;;;;;;7.60;2.47;;;21.60;45.50;;;;;;6221106;28;20057;-63
2020/12/06 13:49:40;;;;;;;5.90;2.63;;;21.60;45.50;;;;;;6216280;28;20034;-62
2020/12/06 13:52:41;;;;;;;5.43;2.85;;;21.60;45.70;;;;;;6216856;28;20022;-63
2020/12/06 13:55:41;;;;;;;4.95;2.70;;;21.60;46.90;;;;;;6215808;28;20034;-61
2020/12/06 13:58:42;;;;;;;70.13;4.47;;;21.60;46.60;;;;;;6197870;28;20022;-62
2020/12/06 14:01:47;;;;;;;26.02;3.17;;;21.60;46.50;;;;;;6191219;28;20070;-61
2020/12/06 14:04:47;;;;;;;17.17;2.70;;;21.70;46.30;;;;;;6217633;28;20116;-60
2020/12/06 14:07:48;;;;;;;25.45;3.00;;;21.70;46.40;;;;;;6216854;28;20040;-61
2020/12/06 14:10:48;;;;;;;21.20;2.60;;;21.70;46.20;;;;;;6215353;28;20030;-61
2020/12/06 14:13:49;;;;;;;13.85;3.67;;;21.80;46.30;;;;;;6216732;28;20068;-61
2020/12/06 14:16:50;;;;;;;17.67;3.08;;;21.80;46.40;;;;;;6199231;28;20030;-62
2020/12/06 14:19:51;;;;;;;26.25;4.40;;;21.80;46.40;;;;;;6199363;28;20084;-63
2020/12/06 14:22:51;;;;;;;58.05;5.22;;;21.80;46.70;;;;;;6215593;28;20057;-63
2020/12/06 14:25:52;;;;;;;59.33;4.70;;;21.80;46.60;;;;;;6216590;28;20115;-62
2020/12/06 14:28:52;;;;;;;45.72;4.43;;;21.80;46.70;;;;;;6214857;28;20021;-61
2020/12/06 14:31:53;;;;;;;21.20;3.40;;;21.90;46.60;;;;;;6207285;28;20027;-61
2020/12/06 14:34:53;;;;;;;27.40;3.90;;;21.90;46.60;;;;;;6222986;28;20101;-61
2020/12/06 14:37:54;;;;;;;24.45;3.65;;;21.80;47.20;;;;;;6224761;28;20549;-62
2020/12/06 14:40:54;;;;;;;23.60;3.45;;;21.90;46.60;;;;;;6221996;28;20520;-61
2020/12/06 14:43:54;;;;;;;25.42;3.70;;;21.90;46.60;;;;;;6223311;28;20481;-63
2020/12/06 14:46:55;;;;;;;25.33;3.67;;;21.90;46.40;;;;;;6224308;28;20029;-62
2020/12/06 14:49:56;;;;;;;36.22;4.35;;;21.90;46.70;;;;;;6222376;28;20049;-63
2020/12/06 14:52:56;;;;;;;60.30;4.70;;;21.80;46.60;;;;;;6222954;28;20037;-64
2020/12/06 14:55:57;;;;;;;73.28;4.45;;;21.90;46.80;;;;;;6223816;28;20033;-65
2020/12/06 14:58:57;;;;;;;63.50;5.18;;;21.90;46.70;;;;;;6224603;28;20026;-66
2020/12/06 15:01:58;;;;;;;52.88;4.53;;;21.90;47.00;;;;;;6221962;28;20026;-64
2020/12/06 15:04:58;;;;;;;27.67;3.97;;;21.90;46.90;;;;;;6222642;28;20022;-62
2020/12/06 15:07:59;;;;;;;35.28;3.85;;;21.90;47.10;;;;;;6222859;28;20593;-63
2020/12/06 15:10:59;;;;;;;46.55;4.28;;;21.80;47.10;;;;;;6221423;28;20014;-63
2020/12/06 15:14:00;;;;;;;34.92;4.10;;;21.80;47.20;;;;;;6221677;28;20042;-63
2020/12/06 15:17:00;;;;;;;22.95;3.80;;;21.80;47.30;;;;;;6222555;28;20042;-63
2020/12/06 15:20:01;;;;;;;20.55;4.03;;;21.70;47.10;;;;;;6222491;28;20037;-64
2020/12/06 15:23:01;;;;;;;38.58;3.83;;;21.70;47.00;;;;;;6221800;28;20029;-64
2020/12/06 15:26:02;;;;;;;18.48;3.33;;;21.80;47.20;;;;;;6225784;28;20499;-63
2020/12/06 15:29:03;;;;;;;20.30;3.42;;;21.70;47.10;;;;;;6222223;28;20105;-64
2020/12/06 15:32:04;;;;;;;36.75;3.65;;;21.70;47.60;;;;;;6220965;28;20038;-63
2020/12/06 15:35:04;;;;;;;26.63;3.97;;;21.70;47.00;;;;;;6223555;28;20026;-63
2020/12/06 15:38:05;;;;;;;15.40;3.58;;;21.80;47.20;;;;;;6225265;28;20079;-64